Time;durP1;ratioP1;P1;durP2;ratioP2;P2;SDS_P1;SDS_P2;PMS_P1;PMS_P2;Temp;Humidity;BMP_temperature;BMP_pressure;BME280_temperature;BME280_humidity;BME280_pressure;Samples;Min_cycle;Max_cycle;Signal;HPM_P1;HPM_P2
2021/06/20 00:02:03;;;;;;;6.93;2.07;;;22.90;99.90;;;;;;6146902;23;20543;-82
2021/06/20 00:04:30;;;;;;;3.00;1.93;;;23.00;99.90;;;;;;6145173;23;20411;-84
2021/06/20 00:06:57;;;;;;;2.80;2.03;;;23.20;99.90;;;;;;6120730;23;20481;-84
2021/06/20 00:09:24;;;;;;;3.13;2.00;;;23.40;99.90;;;;;;6122735;23;20415;-86
2021/06/20 00:11:53;;;;;;;7.00;2.80;;;23.30;99.90;;;;;;6122679;23;20474;-85
2021/06/20 00:14:23;;;;;;;4.90;2.37;;;23.10;99.90;;;;;;6150145;23;20422;-84
2021/06/20 00:16:52;;;;;;;3.63;2.30;;;23.10;99.90;;;;;;6124743;23;20545;-85
2021/06/20 00:19:19;;;;;;;3.10;2.60;;;23.10;99.90;;;;;;6123723;23;20481;-86
2021/06/20 00:21:51;;;;;;;4.67;2.43;;;22.90;99.90;;;;;;6149407;23;20422;-86
2021/06/20 00:24:22;;;;;;;4.83;2.90;;;22.80;99.90;;;;;;6149166;23;20473;-85
2021/06/20 00:26:49;;;;;;;4.60;2.70;;;22.80;99.90;;;;;;6146077;23;20437;-86
2021/06/20 00:29:18;;;;;;;3.87;2.20;;;22.80;99.90;;;;;;6150436;23;20429;-87
2021/06/20 00:31:53;;;;;;;3.53;2.47;;;22.90;99.90;;;;;;6148482;23;20413;-85
2021/06/20 00:34:26;;;;;;;3.67;2.50;;;23.00;99.90;;;;;;6148520;23;20425;-85
2021/06/20 00:43:25;;;;;;;3.93;2.60;;;23.10;99.90;;;;;;6100988;23;20427;-86
2021/06/20 00:45:52;;;;;;;4.60;2.90;;;23.00;99.90;;;;;;6131416;23;20400;-85
2021/06/20 00:48:19;;;;;;;3.13;2.07;;;23.00;99.90;;;;;;6095661;23;20793;-85
2021/06/20 00:50:46;;;;;;;6.50;2.77;;;23.00;99.90;;;;;;6119924;23;20407;-85
2021/06/20 00:53:13;;;;;;;3.83;2.77;;;22.90;99.90;;;;;;6121381;23;20759;-86
2021/06/20 00:55:40;;;;;;;7.23;2.70;;;22.90;99.90;;;;;;6132286;23;20399;-86
2021/06/20 00:58:08;;;;;;;3.20;2.40;;;22.90;99.90;;;;;;6114297;23;21004;-83
2021/06/20 01:00:36;;;;;;;4.13;2.87;;;22.80;99.90;;;;;;6112063;23;20447;-84
2021/06/20 01:03:05;;;;;;;3.37;2.47;;;22.60;99.90;;;;;;6118558;23;20481;-84
2021/06/20 01:05:32;;;;;;;2.80;1.90;;;22.40;99.90;;;;;;6118272;23;20453;-85
2021/06/20 01:07:59;;;;;;;3.10;2.70;;;22.40;99.90;;;;;;6117466;23;20427;-85
2021/06/20 01:10:35;;;;;;;3.40;2.40;;;22.40;99.90;;;;;;6118914;23;20506;-85
2021/06/20 01:13:04;;;;;;;3.87;2.50;;;22.50;99.90;;;;;;6094480;23;20977;-84
2021/06/20 01:15:32;;;;;;;4.43;2.50;;;22.60;99.90;;;;;;6121504;23;20450;-84
2021/06/20 01:17:58;;;;;;;3.73;2.37;;;22.60;99.90;;;;;;6119640;23;20446;-84
2021/06/20 01:20:25;;;;;;;2.83;2.30;;;22.70;99.90;;;;;;6115939;23;21194;-84
2021/06/20 01:22:53;;;;;;;3.80;2.40;;;22.70;99.90;;;;;;6116879;23;20423;-85
2021/06/20 01:25:23;;;;;;;6.50;2.63;;;22.60;99.90;;;;;;6116775;23;20442;-85
2021/06/20 01:27:54;;;;;;;2.63;2.40;;;22.60;99.90;;;;;;6116863;23;20843;-86
2021/06/20 01:30:26;;;;;;;6.53;2.50;;;22.70;99.90;;;;;;6116791;23;20424;-85
2021/06/20 01:32:55;;;;;;;3.20;2.53;;;22.80;99.90;;;;;;6118359;23;20412;-84
2021/06/20 01:35:22;;;;;;;4.23;2.10;;;22.70;99.90;;;;;;6118820;23;20420;-87
2021/06/20 01:37:50;;;;;;;3.20;2.90;;;22.60;99.90;;;;;;6088627;23;20456;-85
2021/06/20 01:40:18;;;;;;;5.30;2.50;;;22.60;99.90;;;;;;6088635;23;20543;-86
2021/06/20 01:42:45;;;;;;;3.63;2.60;;;22.70;99.90;;;;;;6088898;23;20420;-85
2021/06/20 01:45:15;;;;;;;2.93;2.67;;;22.60;99.90;;;;;;6112583;23;20940;-85
2021/06/20 01:47:43;;;;;;;2.97;2.67;;;22.60;99.90;;;;;;6114000;23;20425;-86
2021/06/20 01:50:13;;;;;;;5.80;3.10;;;22.60;99.90;;;;;;6091289;23;20485;-85
2021/06/20 01:52:41;;;;;;;3.37;2.70;;;22.60;99.90;;;;;;6108936;23;21266;-86
2021/06/20 01:55:10;;;;;;;8.60;4.50;;;22.40;99.90;;;;;;6087064;23;20447;-86
2021/06/20 01:57:41;;;;;;;8.10;3.83;;;22.40;99.90;;;;;;6087085;23;20470;-84
2021/06/20 02:00:11;;;;;;;9.10;3.30;;;22.30;99.90;;;;;;6085333;23;20452;-85
2021/06/20 02:02:38;;;;;;;8.70;3.70;;;22.30;99.90;;;;;;6109753;23;20405;-85
2021/06/20 02:05:05;;;;;;;9.77;4.40;;;22.40;99.90;;;;;;6086762;23;20455;-84
2021/06/20 02:07:37;;;;;;;6.90;3.93;;;22.30;99.90;;;;;;6109683;23;20436;-86
2021/06/20 02:10:08;;;;;;;5.30;3.63;;;22.20;99.90;;;;;;6109814;23;20416;-87
2021/06/20 02:12:35;;;;;;;7.13;4.10;;;22.40;99.90;;;;;;6086019;23;20424;-85
2021/06/20 02:15:05;;;;;;;11.43;4.07;;;22.40;99.90;;;;;;6108717;23;20420;-84
2021/06/20 02:17:33;;;;;;;8.03;3.90;;;22.30;99.90;;;;;;6087444;23;20436;-87
2021/06/20 02:20:08;;;;;;;13.00;4.73;;;22.20;99.90;;;;;;6109147;23;20959;-86
2021/06/20 02:22:36;;;;;;;11.63;4.20;;;22.10;99.90;;;;;;6109156;23;20754;-85
2021/06/20 02:25:03;;;;;;;11.33;4.63;;;22.10;99.90;;;;;;6109847;23;20982;-86
2021/06/20 02:27:33;;;;;;;10.60;4.00;;;22.10;99.90;;;;;;6107916;23;20496;-85
2021/06/20 02:30:14;;;;;;;9.70;5.00;;;22.10;99.90;;;;;;6107258;23;20440;-87
2021/06/20 02:32:44;;;;;;;7.33;3.83;;;22.20;99.90;;;;;;6106587;23;20412;-87
2021/06/20 02:35:18;;;;;;;12.27;4.80;;;22.30;99.90;;;;;;6107729;23;20575;-86
2021/06/20 02:37:53;;;;;;;12.73;4.73;;;22.30;99.90;;;;;;6107501;23;20505;-86
2021/06/20 02:40:25;;;;;;;11.83;4.77;;;22.40;99.90;;;;;;6107876;23;20519;-86
2021/06/20 02:42:55;;;;;;;8.10;3.77;;;22.50;99.90;;;;;;6108434;23;20526;-86
2021/06/20 02:45:24;;;;;;;11.80;5.17;;;22.50;99.90;;;;;;6085636;23;20417;-85
2021/06/20 02:47:56;;;;;;;10.13;4.70;;;22.30;99.90;;;;;;6086140;23;20646;-83
2021/06/20 02:50:26;;;;;;;8.03;3.50;;;22.20;99.90;;;;;;6085606;23;21510;-84
2021/06/20 02:52:56;;;;;;;8.67;4.47;;;22.20;99.90;;;;;;6107096;23;20430;-84
2021/06/20 02:55:26;;;;;;;10.33;4.30;;;22.20;99.90;;;;;;6109744;23;20440;-86
2021/06/20 02:58:14;;;;;;;11.10;4.47;;;22.30;99.90;;;;;;6110579;23;20463;-85
2021/06/20 03:01:11;;;;;;;11.00;4.57;;;22.20;99.90;;;;;;6092446;23;20934;-87
2021/06/20 03:03:45;;;;;;;14.77;5.50;;;22.30;99.90;;;;;;6125997;23;20494;-86
2021/06/20 03:06:25;;;;;;;10.97;4.73;;;22.40;99.90;;;;;;6109212;23;20425;-86
2021/06/20 03:08:55;;;;;;;7.20;4.20;;;22.50;99.90;;;;;;6088841;23;20413;-86
2021/06/20 03:11:27;;;;;;;12.97;5.40;;;22.50;99.90;;;;;;6089312;23;20476;-84
2021/06/20 03:13:56;;;;;;;10.23;5.33;;;22.60;99.90;;;;;;6111590;23;20460;-84
2021/06/20 03:16:25;;;;;;;9.87;4.30;;;22.50;99.90;;;;;;6111899;23;20912;-86
2021/06/20 03:18:55;;;;;;;8.00;4.37;;;22.50;99.90;;;;;;6111379;23;20451;-88
2021/06/20 03:21:22;;;;;;;9.47;4.33;;;22.50;99.90;;;;;;6088819;23;20448;-87
2021/06/20 03:23:52;;;;;;;8.77;4.43;;;22.60;99.90;;;;;;6110879;23;20753;-88
2021/06/20 03:26:24;;;;;;;11.47;4.80;;;22.80;99.90;;;;;;6111271;23;20444;-87
2021/06/20 03:29:07;;;;;;;9.90;5.30;;;22.90;99.90;;;;;;6088470;23;20436;-87
2021/06/20 03:31:56;;;;;;;9.53;4.87;;;22.90;99.90;;;;;;6057173;23;20486;-87
2021/06/20 03:34:31;;;;;;;7.43;4.63;;;22.90;99.90;;;;;;6056270;23;20480;-86
2021/06/20 03:37:00;;;;;;;11.10;5.03;;;23.00;99.90;;;;;;6085743;23;20499;-87
2021/06/20 03:39:43;;;;;;;7.70;4.70;;;23.00;99.90;;;;;;6108669;23;20423;-88
2021/06/20 03:42:16;;;;;;;7.10;4.53;;;23.00;99.90;;;;;;6087972;23;20515;-87
2021/06/20 03:44:48;;;;;;;8.13;5.03;;;23.00;99.90;;;;;;6109988;23;20417;-87
2021/06/20 03:47:22;;;;;;;7.17;4.90;;;22.90;99.90;;;;;;6087926;23;20447;-87
2021/06/20 03:50:15;;;;;;;8.43;4.67;;;22.90;99.90;;;;;;6109913;23;20440;-87
2021/06/20 03:52:59;;;;;;;6.53;4.63;;;23.00;99.90;;;;;;6068862;23;20418;-86
2021/06/20 03:55:29;;;;;;;7.40;4.50;;;23.00;99.90;;;;;;6111477;23;20497;-85
2021/06/20 03:58:21;;;;;;;8.33;3.80;;;23.00;99.90;;;;;;6088890;23;20487;-87
2021/06/20 04:01:23;;;;;;;6.97;3.77;;;22.80;99.90;;;;;;6008837;23;20538;-87
2021/06/20 04:04:00;;;;;;;5.90;3.60;;;22.70;99.90;;;;;;6005301;23;20414;-87
2021/06/20 04:06:39;;;;;;;5.57;3.53;;;22.70;99.90;;;;;;6027282;23;20426;-86
2021/06/20 04:09:12;;;;;;;6.60;3.53;;;22.80;99.90;;;;;;6027062;23;20470;-87
2021/06/20 04:11:47;;;;;;;6.23;3.43;;;22.80;99.90;;;;;;6028530;23;20426;-86
2021/06/20 04:14:19;;;;;;;4.30;3.33;;;22.80;99.90;;;;;;6029668;23;20410;-86
2021/06/20 04:16:47;;;;;;;4.43;3.50;;;22.80;99.90;;;;;;6029917;23;20506;-86
2021/06/20 04:19:16;;;;;;;5.37;3.23;;;22.70;99.90;;;;;;6031000;23;20629;-87
2021/06/20 04:21:46;;;;;;;5.50;3.63;;;22.80;99.90;;;;;;6029912;23;20442;-86
2021/06/20 04:24:13;;;;;;;7.57;4.17;;;22.80;99.90;;;;;;6032988;23;20418;-85
2021/06/20 04:26:42;;;;;;;4.87;3.03;;;22.70;99.90;;;;;;6029187;23;20520;-87
2021/06/20 04:29:12;;;;;;;5.10;3.10;;;22.70;99.90;;;;;;6029579;23;20420;-85
2021/06/20 04:31:42;;;;;;;9.00;4.00;;;22.80;99.90;;;;;;6029716;23;20918;-87
2021/06/20 04:34:15;;;;;;;4.93;4.13;;;22.80;99.90;;;;;;6032813;23;20481;-85
2021/06/20 04:36:52;;;;;;;4.47;3.80;;;22.80;99.90;;;;;;6058289;23;20428;-85
2021/06/20 04:39:41;;;;;;;4.93;3.87;;;23.00;99.90;;;;;;6120572;23;20527;-85
2021/06/20 04:42:33;;;;;;;7.27;3.60;;;23.40;99.90;;;;;;6123580;23;20447;-86
2021/06/20 04:45:01;;;;;;;5.97;3.57;;;23.50;99.90;;;;;;6128807;23;20384;-87
2021/06/20 04:47:42;;;;;;;3.50;2.73;;;23.40;99.90;;;;;;6122958;23;20466;-86
2021/06/20 04:50:12;;;;;;;5.27;3.50;;;23.20;99.90;;;;;;6118220;23;20391;-85
2021/06/20 04:52:43;;;;;;;3.27;2.97;;;23.10;99.90;;;;;;6118285;23;20502;-85
2021/06/20 04:55:16;;;;;;;6.90;3.20;;;23.00;99.90;;;;;;6092928;23;20466;-85
2021/06/20 04:57:46;;;;;;;5.90;3.10;;;22.90;99.90;;;;;;6119041;23;20463;-85
2021/06/20 05:00:22;;;;;;;3.60;3.00;;;23.00;99.90;;;;;;6117847;23;20419;-85
2021/06/20 05:02:51;;;;;;;4.13;3.10;;;22.90;99.90;;;;;;6118299;23;20407;-86
2021/06/20 05:05:27;;;;;;;5.23;3.00;;;22.80;99.90;;;;;;6121891;23;20415;-83
2021/06/20 05:07:56;;;;;;;4.10;3.17;;;23.00;99.90;;;;;;6134607;23;20463;-85
2021/06/20 05:10:25;;;;;;;4.27;2.80;;;23.10;99.90;;;;;;6132440;23;20414;-85
2021/06/20 05:12:55;;;;;;;2.83;2.37;;;23.10;99.90;;;;;;6109294;23;20404;-85
2021/06/20 05:15:26;;;;;;;4.70;3.00;;;23.00;99.90;;;;;;6135018;23;20404;-85
2021/06/20 05:17:59;;;;;;;3.73;2.60;;;23.00;99.90;;;;;;6134060;23;20419;-85
2021/06/20 05:20:28;;;;;;;3.43;2.47;;;22.90;99.90;;;;;;6132521;23;20446;-86
2021/06/20 05:22:57;;;;;;;2.87;2.60;;;23.20;99.90;;;;;;6132462;23;20443;-87
2021/06/20 05:25:27;;;;;;;3.40;2.20;;;23.30;99.90;;;;;;6100748;23;20447;-87
2021/06/20 05:27:57;;;;;;;3.87;2.40;;;23.30;99.90;;;;;;6122062;23;20805;-87
2021/06/20 05:30:27;;;;;;;3.23;2.50;;;23.30;99.90;;;;;;6120284;23;20436;-86
2021/06/20 05:33:04;;;;;;;4.90;2.43;;;23.20;99.90;;;;;;6121611;23;20939;-86
2021/06/20 05:35:34;;;;;;;3.50;2.43;;;23.00;99.90;;;;;;6119005;23;20415;-83
2021/06/20 05:38:03;;;;;;;2.90;2.70;;;23.20;99.90;;;;;;6119801;23;20447;-86
2021/06/20 05:40:31;;;;;;;3.10;2.23;;;23.40;99.90;;;;;;6119285;23;20412;-85
2021/06/20 05:43:05;;;;;;;2.37;1.97;;;23.30;99.90;;;;;;6119813;23;20417;-85
2021/06/20 05:46:05;;;;;;;6.87;2.40;;;23.20;99.90;;;;;;6095509;23;20416;-86
2021/06/20 05:48:39;;;;;;;3.10;2.63;;;23.10;99.90;;;;;;6097080;23;20828;-86
2021/06/20 05:51:06;;;;;;;3.60;2.33;;;23.20;99.90;;;;;;6122337;23;20420;-85
2021/06/20 05:53:34;;;;;;;4.97;2.57;;;23.10;99.90;;;;;;6120531;23;20404;-86
2021/06/20 05:56:07;;;;;;;3.20;2.50;;;23.10;99.90;;;;;;6121782;23;20514;-85
2021/06/20 05:58:39;;;;;;;8.93;3.43;;;23.10;99.90;;;;;;6124135;23;20471;-85
2021/06/20 06:01:31;;;;;;;3.83;2.80;;;23.50;99.50;;;;;;6125704;23;20466;-85
2021/06/20 06:04:06;;;;;;;5.03;2.50;;;23.60;98.70;;;;;;6143402;23;20418;-86
2021/06/20 06:06:38;;;;;;;3.30;2.13;;;23.50;98.90;;;;;;6145053;23;20419;-86
2021/06/20 06:09:15;;;;;;;2.73;2.13;;;23.20;99.70;;;;;;6127494;23;20396;-85
2021/06/20 06:12:00;;;;;;;1.63;1.50;;;23.30;99.90;;;;;;6110412;23;20407;-84
2021/06/20 06:14:36;;;;;;;3.77;2.93;;;23.30;99.90;;;;;;6117582;23;20478;-85
2021/06/20 06:17:09;;;;;;;2.47;2.27;;;23.30;99.80;;;;;;6116889;23;20432;-83
2021/06/20 06:19:50;;;;;;;3.43;2.40;;;23.30;99.10;;;;;;6119855;23;20478;-85
2021/06/20 06:22:27;;;;;;;2.63;2.23;;;23.20;98.90;;;;;;6121741;23;20443;-85
2021/06/20 06:25:35;;;;;;;3.20;2.40;;;23.50;98.80;;;;;;6122561;23;20415;-85
2021/06/20 06:28:19;;;;;;;3.17;2.53;;;23.50;98.30;;;;;;6101356;23;20495;-83
2021/06/20 06:30:49;;;;;;;3.40;2.03;;;23.70;97.40;;;;;;6130139;23;20381;-85
2021/06/20 06:33:25;;;;;;;3.37;2.80;;;23.90;96.90;;;;;;6141779;23;20417;-86
2021/06/20 06:36:08;;;;;;;3.30;2.30;;;23.90;95.90;;;;;;6142739;23;20503;-85
2021/06/20 06:38:38;;;;;;;2.00;1.90;;;23.60;96.50;;;;;;6121337;23;20447;-85
2021/06/20 06:41:17;;;;;;;2.10;2.00;;;23.90;96.40;;;;;;6146260;23;20526;-85
2021/06/20 06:44:53;;;;;;;3.20;2.47;;;23.90;96.50;;;;;;6145318;23;20411;-85
2021/06/20 06:47:44;;;;;;;3.10;2.20;;;24.10;94.90;;;;;;6050221;23;20482;-84
2021/06/20 06:50:13;;;;;;;2.80;2.20;;;24.10;95.30;;;;;;6050806;23;20411;-83
2021/06/20 06:53:22;;;;;;;;;;;;;;;;;;;;;
2021/06/20 06:56:17;;;;;;;2.60;2.40;;;24.10;95.30;;;;;;6141129;23;20486;-85
2021/06/20 06:59:38;;;;;;;;;;;;;;;;;;;;;
2021/06/20 07:02:06;;;;;;;1.73;1.63;;;24.30;94.60;;;;;;6121286;23;20451;-85
2021/06/20 07:12:59;;;;;;;2.00;1.90;;;24.10;94.40;;;;;;6141836;23;20396;-84
2021/06/20 07:15:44;;;;;;;2.10;2.00;;;24.30;93.70;;;;;;6118674;23;20404;-87
2021/06/20 07:18:25;;;;;;;2.43;2.20;;;24.40;93.50;;;;;;6146792;23;20475;-86
2021/06/20 07:20:57;;;;;;;2.03;1.90;;;24.40;92.90;;;;;;6145675;23;20404;-87
2021/06/20 07:27:44;;;;;;;2.50;2.00;;;24.50;92.10;;;;;;6109269;23;20444;-84
2021/06/20 07:30:21;;;;;;;2.30;2.10;;;24.40;92.10;;;;;;6139712;23;20403;-86
2021/06/20 07:33:00;;;;;;;2.77;2.27;;;24.30;92.60;;;;;;6121322;23;20476;-86
2021/06/20 07:35:36;;;;;;;1.87;1.77;;;24.40;92.50;;;;;;6145641;23;20462;-86
2021/06/20 07:38:09;;;;;;;3.10;2.20;;;24.50;92.50;;;;;;6146599;23;20428;-87
2021/06/20 07:40:37;;;;;;;2.83;2.17;;;24.70;92.20;;;;;;6146404;23;20410;-85
2021/06/20 07:43:11;;;;;;;2.20;2.00;;;25.00;91.60;;;;;;6143755;23;20399;-86
2021/06/20 07:48:54;;;;;;;2.57;2.37;;;25.00;91.10;;;;;;6021586;23;20440;-84
2021/06/20 07:51:44;;;;;;;3.33;2.07;;;25.10;90.40;;;;;;6021056;23;20398;-85
2021/06/20 07:54:21;;;;;;;1.97;1.87;;;25.30;90.20;;;;;;5997669;23;20399;-86
2021/06/20 07:57:00;;;;;;;2.40;2.20;;;25.50;88.70;;;;;;6024007;23;20435;-85
2021/06/20 07:59:32;;;;;;;1.53;1.43;;;25.30;88.80;;;;;;6001643;23;20412;-85
2021/06/20 08:02:16;;;;;;;2.53;1.80;;;25.20;89.20;;;;;;6004097;23;20503;-86
2021/06/20 08:04:52;;;;;;;2.13;1.70;;;25.40;88.10;;;;;;6001996;23;20403;-85
2021/06/20 08:07:25;;;;;;;3.23;1.90;;;25.20;88.50;;;;;;5998775;23;20463;-85
2021/06/20 08:10:16;;;;;;;2.13;1.90;;;25.10;88.30;;;;;;6016461;23;20415;-85
2021/06/20 08:12:50;;;;;;;2.20;2.00;;;25.10;88.80;;;;;;6017051;23;20423;-86
2021/06/20 08:15:24;;;;;;;2.70;2.50;;;25.50;87.60;;;;;;6016509;23;20502;-87
2021/06/20 08:18:08;;;;;;;2.10;1.90;;;25.90;86.10;;;;;;6015836;23;20756;-86
2021/06/20 08:20:37;;;;;;;5.07;2.50;;;25.80;86.40;;;;;;6015384;23;20412;-87
2021/06/20 08:23:12;;;;;;;2.40;2.20;;;26.00;85.30;;;;;;5992009;23;20447;-86
2021/06/20 08:25:47;;;;;;;4.40;1.87;;;26.20;83.00;;;;;;6125857;23;20487;-86
2021/06/20 08:28:23;;;;;;;2.40;2.20;;;25.90;84.00;;;;;;6126185;23;20542;-85
2021/06/20 08:31:02;;;;;;;2.50;2.10;;;26.10;83.40;;;;;;6128616;23;20502;-85
2021/06/20 08:33:41;;;;;;;4.43;1.87;;;26.00;82.40;;;;;;6139889;23;20407;-86
2021/06/20 08:36:34;;;;;;;2.03;1.93;;;26.60;81.20;;;;;;6143267;23;20483;-88
2021/06/20 08:39:18;;;;;;;3.03;1.90;;;26.80;79.30;;;;;;6105188;23;20439;-86
2021/06/20 08:41:52;;;;;;;1.50;1.40;;;26.20;80.10;;;;;;6104216;23;20490;-86
2021/06/20 08:44:30;;;;;;;1.57;1.47;;;26.20;80.00;;;;;;6126079;23;20411;-86
2021/06/20 08:47:18;;;;;;;3.93;2.10;;;26.20;80.20;;;;;;6124431;23;20443;-88
2021/06/20 08:50:11;;;;;;;1.60;1.50;;;26.20;79.10;;;;;;6103156;23;20416;-87
2021/06/20 08:52:44;;;;;;;2.00;1.80;;;26.20;78.80;;;;;;6100254;23;20415;-86
2021/06/20 08:55:49;;;;;;;2.40;1.80;;;27.00;77.30;;;;;;6129200;23;20395;-86
2021/06/20 08:58:52;;;;;;;1.87;1.77;;;27.30;75.60;;;;;;6114947;23;20498;-87
2021/06/20 09:01:42;;;;;;;1.50;1.40;;;27.10;76.90;;;;;;6123030;23;20448;-87
2021/06/20 09:04:34;;;;;;;1.70;1.60;;;27.10;74.90;;;;;;6128929;23;20415;-85
2021/06/20 09:07:14;;;;;;;1.87;1.60;;;27.10;71.90;;;;;;6128913;23;20440;-85
2021/06/20 09:10:48;;;;;;;1.83;1.60;;;27.80;70.90;;;;;;6128156;23;20422;-86
2021/06/20 09:14:02;;;;;;;1.60;1.40;;;27.70;71.80;;;;;;6016513;23;20426;-85
2021/06/20 09:24:21;;;;;;;11.87;10.27;;;29.80;61.40;;;;;;6009944;23;20412;-86
2021/06/20 09:27:37;;;;;;;15.50;11.30;;;29.40;59.50;;;;;;5989449;23;21141;-86
2021/06/20 09:30:35;;;;;;;2.30;2.10;;;28.80;60.50;;;;;;5979761;23;20408;-86
2021/06/20 09:36:38;;;;;;;2.73;1.90;;;28.40;63.80;;;;;;5986606;23;20492;-86
2021/06/20 09:39:27;;;;;;;1.77;1.67;;;28.50;62.70;;;;;;5997087;23;20913;-87
2021/06/20 09:50:25;;;;;;;1.80;1.40;;;30.00;59.10;;;;;;6127620;23;20423;-86
2021/06/20 09:54:08;;;;;;;2.20;1.33;;;30.10;57.80;;;;;;6052066;23;20405;-86
2021/06/20 10:09:56;;;;;;;1.60;1.50;;;30.20;55.50;;;;;;6094238;23;20427;-86
2021/06/20 10:12:53;;;;;;;1.53;1.30;;;31.60;52.60;;;;;;6083380;23;20963;-88
2021/06/20 10:15:49;;;;;;;1.93;1.30;;;32.40;50.70;;;;;;6124231;23;20415;-85
2021/06/20 10:18:29;;;;;;;2.63;1.50;;;31.50;50.60;;;;;;6103690;23;20420;-86
2021/06/20 10:21:40;;;;;;;1.40;1.30;;;31.80;50.10;;;;;;6123474;23;21057;-86
2021/06/20 10:24:25;;;;;;;3.70;1.60;;;30.90;51.60;;;;;;6100810;23;20431;-86
2021/06/20 10:27:06;;;;;;;1.83;1.57;;;30.40;52.60;;;;;;6104292;23;20430;-86
2021/06/20 10:29:38;;;;;;;2.57;1.40;;;29.60;53.80;;;;;;6108808;23;20701;-86
2021/06/20 10:35:42;;;;;;;1.50;1.40;;;29.30;55.40;;;;;;6131359;23;20396;-87
2021/06/20 10:38:58;;;;;;;1.50;1.40;;;29.30;55.20;;;;;;6111045;23;20465;-85
2021/06/20 10:41:48;;;;;;;1.40;1.30;;;29.30;55.50;;;;;;5926097;24;20449;-88
2021/06/20 10:44:24;;;;;;;2.00;1.90;;;30.00;53.90;;;;;;5922703;24;20410;-87
2021/06/20 10:46:55;;;;;;;2.27;1.43;;;30.20;53.90;;;;;;6009535;23;20442;-87
2021/06/20 10:49:25;;;;;;;3.23;1.60;;;30.10;53.90;;;;;;6012533;23;20411;-87
2021/06/20 10:52:39;;;;;;;2.20;1.47;;;29.80;55.00;;;;;;6012278;23;20436;-86
2021/06/20 10:56:20;;;;;;;1.57;1.47;;;30.10;55.00;;;;;;6035363;23;20525;-87
2021/06/20 11:02:37;;;;;;;1.47;1.37;;;32.70;47.30;;;;;;5876655;24;20455;-87
2021/06/20 11:05:23;;;;;;;2.00;1.27;;;31.70;49.00;;;;;;5922970;24;20426;-86
2021/06/20 11:12:58;;;;;;;3.47;1.60;;;30.90;51.00;;;;;;5877507;24;20592;-86
2021/06/20 11:16:21;;;;;;;2.23;1.33;;;30.70;51.60;;;;;;5843639;24;20401;-87
2021/06/20 11:19:22;;;;;;;1.37;1.27;;;30.30;52.00;;;;;;5959225;23;20982;-87
2021/06/20 11:23:32;;;;;;;;;;;;;;;;;;;;;
2021/06/20 11:30:44;;;;;;;1.50;1.40;;;30.60;51.00;;;;;;5929709;23;20397;-86
2021/06/20 11:34:29;;;;;;;;;;;;;;;;;;;;;
2021/06/20 11:40:44;;;;;;;1.70;1.60;;;29.10;54.60;;;;;;6004732;23;20395;-86
2021/06/20 11:47:04;;;;;;;1.93;1.80;;;29.20;54.10;;;;;;5977896;23;20463;-87
2021/06/20 11:49:36;;;;;;;1.90;1.80;;;28.90;53.90;;;;;;6005186;23;20408;-87
2021/06/20 11:53:15;;;;;;;;;;;;;;;;;;;;;
2021/06/20 12:00:34;;;;;;;1.80;1.23;;;29.90;52.00;;;;;;5831895;24;20425;-86
2021/06/20 12:03:10;;;;;;;1.50;1.40;;;30.10;51.30;;;;;;5826903;24;20455;-85
2021/06/20 12:06:04;;;;;;;1.47;1.37;;;30.10;50.90;;;;;;5947563;24;20416;-85
2021/06/20 12:08:35;;;;;;;1.50;1.40;;;29.90;51.60;;;;;;6002769;23;20444;-88
2021/06/20 12:11:10;;;;;;;1.83;1.27;;;29.50;52.60;;;;;;6018308;23;20457;-86
2021/06/20 12:13:41;;;;;;;1.93;1.53;;;29.80;51.10;;;;;;6056051;23;20420;-87
2021/06/20 12:16:20;;;;;;;1.70;1.60;;;29.70;51.20;;;;;;6095777;23;20404;-86
2021/06/20 12:22:30;;;;;;;2.03;1.70;;;29.80;51.60;;;;;;6097889;23;20480;-87
2021/06/20 12:25:16;;;;;;;1.23;1.13;;;29.60;52.10;;;;;;6072210;23;20396;-85
2021/06/20 12:27:55;;;;;;;1.50;1.40;;;29.70;52.50;;;;;;6094734;23;20441;-86
2021/06/20 12:30:35;;;;;;;3.27;1.90;;;30.00;52.60;;;;;;6094928;23;20907;-87
2021/06/20 12:33:30;;;;;;;1.53;1.43;;;30.00;52.50;;;;;;6072199;23;20416;-86
2021/06/20 12:36:11;;;;;;;1.60;1.43;;;30.00;51.80;;;;;;6105812;23;20823;-85
2021/06/20 12:39:28;;;;;;;2.10;1.60;;;30.30;51.20;;;;;;6109541;23;20451;-84
2021/06/20 12:42:05;;;;;;;2.03;1.57;;;30.30;50.80;;;;;;6112406;23;20436;-86
2021/06/20 12:44:53;;;;;;;1.80;1.70;;;30.50;50.00;;;;;;6109775;23;20412;-86
2021/06/20 12:47:46;;;;;;;1.30;1.20;;;30.90;48.20;;;;;;6103044;23;20470;-87
2021/06/20 12:50:31;;;;;;;2.10;1.43;;;30.70;49.10;;;;;;6075498;23;20409;-85
2021/06/20 12:53:16;;;;;;;1.40;1.30;;;30.10;50.20;;;;;;6099525;23;20476;-85
2021/06/20 12:55:55;;;;;;;1.80;1.40;;;29.90;50.70;;;;;;6096203;23;20431;-87
2021/06/20 12:58:31;;;;;;;1.20;1.10;;;30.40;50.20;;;;;;6075067;23;20440;-85
2021/06/20 13:01:07;;;;;;;2.50;1.13;;;30.90;49.50;;;;;;6097273;23;20420;-85
2021/06/20 13:03:40;;;;;;;1.60;1.50;;;30.90;49.00;;;;;;6082701;23;20522;-85
2021/06/20 13:06:19;;;;;;;2.77;2.13;;;30.40;49.30;;;;;;6075850;23;20420;-85
2021/06/20 13:08:52;;;;;;;3.40;1.30;;;30.20;50.20;;;;;;6100076;23;20428;-88
2021/06/20 13:11:26;;;;;;;2.20;1.13;;;30.30;49.70;;;;;;6097403;23;20410;-85
2021/06/20 13:14:16;;;;;;;2.60;1.50;;;30.00;50.80;;;;;;6072706;23;20443;-85
2021/06/20 13:16:46;;;;;;;2.10;1.30;;;30.00;51.30;;;;;;6070592;23;20405;-86
2021/06/20 13:19:22;;;;;;;1.40;1.30;;;30.50;51.70;;;;;;6074361;23;20538;-86
2021/06/20 13:21:56;;;;;;;1.50;1.40;;;30.80;51.80;;;;;;6095940;23;20431;-86
2021/06/20 13:24:23;;;;;;;1.80;1.70;;;30.90;50.90;;;;;;6071984;23;20404;-87
2021/06/20 13:26:55;;;;;;;4.40;1.83;;;30.70;51.60;;;;;;6096258;23;20397;-86
2021/06/20 13:29:32;;;;;;;2.77;1.90;;;30.40;52.50;;;;;;6098360;23;20408;-84
2021/06/20 13:32:01;;;;;;;1.47;1.37;;;30.20;52.90;;;;;;6098620;23;20671;-85
2021/06/20 13:34:32;;;;;;;1.80;1.23;;;30.70;52.30;;;;;;6072715;23;20499;-86
2021/06/20 13:37:07;;;;;;;1.50;1.40;;;30.70;52.00;;;;;;6099709;23;20468;-86
2021/06/20 13:39:40;;;;;;;1.70;1.60;;;30.40;52.30;;;;;;6083673;23;20409;-88
2021/06/20 13:42:13;;;;;;;2.33;1.70;;;30.50;52.20;;;;;;6083469;23;20427;-88
2021/06/20 13:44:41;;;;;;;2.83;1.97;;;30.20;53.00;;;;;;6082766;23;20907;-85
2021/06/20 13:47:13;;;;;;;1.80;1.67;;;30.50;53.60;;;;;;6106707;23;21050;-85
2021/06/20 13:49:47;;;;;;;4.67;1.50;;;30.60;52.60;;;;;;6075192;23;20424;-85
2021/06/20 13:52:21;;;;;;;1.70;1.60;;;30.60;52.40;;;;;;6072855;23;20832;-86
2021/06/20 13:54:52;;;;;;;1.80;1.70;;;30.40;52.60;;;;;;6073504;23;20438;-86
2021/06/20 13:57:30;;;;;;;2.30;1.60;;;30.10;52.90;;;;;;6080585;23;20453;-86
2021/06/20 14:00:08;;;;;;;1.83;1.73;;;29.90;52.70;;;;;;6108824;23;20420;-87
2021/06/20 14:02:45;;;;;;;2.77;1.60;;;29.70;53.50;;;;;;6110261;23;20435;-85
2021/06/20 14:05:58;;;;;;;2.53;2.33;;;29.40;54.00;;;;;;6085477;23;20404;-84
2021/06/20 14:08:48;;;;;;;2.20;1.90;;;29.30;54.70;;;;;;6101682;23;20415;-86
2021/06/20 14:11:29;;;;;;;1.70;1.60;;;29.30;54.30;;;;;;6102064;23;20412;-86
2021/06/20 14:14:14;;;;;;;1.50;1.40;;;29.70;53.80;;;;;;6067388;23;20408;-86
2021/06/20 14:16:43;;;;;;;1.70;1.60;;;30.10;52.90;;;;;;6104894;23;20456;-87
2021/06/20 14:19:40;;;;;;;;;;;;;;;;;;;;;
2021/06/20 14:22:14;;;;;;;1.90;1.80;;;29.50;53.30;;;;;;6101955;23;20416;-85
2021/06/20 14:25:31;;;;;;;2.60;1.80;;;29.10;54.20;;;;;;6078725;23;20520;-86
2021/06/20 14:28:01;;;;;;;1.60;1.50;;;29.10;54.60;;;;;;6113790;23;20472;-86
2021/06/20 14:30:31;;;;;;;1.83;1.40;;;29.60;53.50;;;;;;6115499;23;20421;-86
2021/06/20 14:33:40;;;;;;;3.17;2.00;;;29.40;52.50;;;;;;6090559;23;20416;-86
2021/06/20 14:36:21;;;;;;;1.93;1.53;;;29.10;53.80;;;;;;6086443;23;20409;-86
2021/06/20 14:39:03;;;;;;;3.60;1.87;;;28.90;54.30;;;;;;6080016;23;20440;-87
2021/06/20 14:41:41;;;;;;;2.33;2.10;;;28.90;54.60;;;;;;6101054;23;20416;-86
2021/06/20 14:44:22;;;;;;;1.70;1.60;;;28.90;55.00;;;;;;6107930;23;20472;-87
2021/06/20 14:46:56;;;;;;;1.63;1.53;;;28.90;54.70;;;;;;6089428;23;20904;-87
2021/06/20 14:49:24;;;;;;;2.10;1.77;;;28.90;53.60;;;;;;6091208;23;20476;-87
2021/06/20 14:52:01;;;;;;;1.70;1.60;;;28.90;54.00;;;;;;6077663;23;20425;-86
2021/06/20 14:54:44;;;;;;;3.80;1.63;;;29.10;53.30;;;;;;6080186;23;20409;-86
2021/06/20 15:00:31;;;;;;;1.60;1.50;;;29.20;52.60;;;;;;6110041;23;20420;-87
2021/06/20 15:03:33;;;;;;;;;;;;;;;;;;;;;
2021/06/20 15:06:18;;;;;;;1.47;1.37;;;29.30;52.40;;;;;;6028239;23;20399;-85
2021/06/20 15:08:57;;;;;;;1.80;1.67;;;29.40;52.10;;;;;;6025752;23;20437;-85
2021/06/20 15:11:56;;;;;;;1.30;1.20;;;29.40;51.30;;;;;;6021747;23;20454;-84
2021/06/20 15:14:27;;;;;;;1.70;1.37;;;29.10;51.60;;;;;;5984851;23;20486;-86
2021/06/20 15:16:56;;;;;;;2.97;2.77;;;29.10;52.30;;;;;;6007599;23;20433;-86
2021/06/20 15:19:40;;;;;;;2.00;1.90;;;29.20;52.50;;;;;;6016464;23;20407;-84
2021/06/20 15:22:24;;;;;;;2.87;2.67;;;29.30;51.90;;;;;;6019742;23;20442;-85
2021/06/20 15:25:01;;;;;;;2.07;1.90;;;29.70;52.00;;;;;;6025819;23;20427;-86